SBKG/CPV METAR and TAF weather

Enter ICAO airport designator
Station Type Date Time Source
SBKG METAR 2022/01/26 20:00 UTC NOAA

SBKG 262000Z 10014KT 9999 FEW030 29/17 Q1011


Station Type Date Time Source
SBKG Decoded METAR 2022/01/26 20:00 UTC NOAA

Campina Grande, Brazil (SBKG) 07-13S 035-53W
Jan 26, 2022 - 03:00 PM EST / 2022.01.26 2000 UTC
Wind: from the E (100 degrees) at 16 MPH (14 KT):0
Visibility: greater than 7 mile(s):0
Sky conditions: mostly clear
Temperature: 84 F (29 C)
Dew Point: 62 F (17 C)
Relative Humidity: 48%
Pressure (altimeter): 29.85 in. Hg (1011 hPa)
ob: SBKG 262000Z 10014KT 9999 FEW030 29/17 Q1011
cycle: 20

Station Type Date Time Source
SBKG TAF 2022/01/26 12:27 UTC NOAA

TAF SBKG 260919Z 2612/2624 10013KT 9999 SCT025 TX32/2617Z TN25/2624Z
RMK PHQ

Example: see airport list